createdAt,value
2018-02-01T00:00:40.134Z,8.05
2018-02-01T00:01:40.113Z,8.01
2018-02-01T00:02:40.109Z,8.08
2018-02-01T00:03:40.119Z,8.06
2018-02-01T00:04:40.104Z,8.06
2018-02-01T00:05:39.914Z,8.01
2018-02-01T00:06:40.419Z,8.08
2018-02-01T00:07:40.081Z,8
2018-02-01T00:08:40.083Z,8.08
2018-02-01T00:09:40.319Z,8.05
2018-02-01T00:10:40.072Z,8.01
2018-02-01T00:11:40.307Z,8.09
2018-02-01T00:12:39.808Z,8.16
2018-02-01T00:13:40.303Z,8.06
2018-02-01T00:14:40.041Z,8.06
2018-02-01T00:15:40.293Z,8.18
2018-02-01T00:16:40.023Z,8.16
2018-02-01T00:17:40.025Z,8.19
2018-02-01T00:18:40.018Z,8.1
2018-02-01T00:19:40.265Z,8.26
2018-02-01T00:20:40.260Z,8.19
2018-02-01T00:21:40.255Z,8.2
2018-02-01T00:22:39.999Z,8.13
2018-02-01T00:23:39.757Z,8.2
2018-02-01T00:24:40.236Z,8.13
2018-02-01T00:25:39.981Z,8.15
2018-02-01T00:26:39.967Z,8.09
2018-02-01T00:27:39.969Z,8.08
2018-02-01T00:28:39.960Z,8.09
2018-02-01T00:29:39.701Z,8.15
2018-02-01T00:30:40.199Z,8.03
2018-02-01T00:31:40.200Z,8.15
2018-02-01T00:32:40.183Z,8.16
2018-02-01T00:33:39.929Z,8.08
2018-02-01T00:34:39.925Z,8.09
2018-02-01T00:35:39.964Z,8.06
2018-02-01T00:36:39.917Z,8.05
2018-02-01T00:37:40.188Z,8.06
2018-02-01T00:38:40.214Z,8.13
2018-02-01T00:39:39.898Z,8.1
2018-02-01T00:40:40.150Z,8.09
2018-02-01T00:41:40.153Z,8.03
2018-02-01T00:42:40.131Z,8.03
2018-02-01T00:43:39.872Z,8.01
2018-02-01T00:44:39.872Z,8.12
2018-02-01T00:45:39.869Z,8.01
2018-02-01T00:46:39.869Z,8.09
2018-02-01T00:47:39.849Z,8.06
2018-02-01T00:48:39.845Z,8.1
2018-02-01T00:49:40.096Z,8.03
2018-02-01T00:50:39.840Z,8.09
2018-02-01T00:51:39.842Z,8.12
2018-02-01T00:52:39.837Z,8.01
2018-02-01T00:53:39.820Z,8.13
2018-02-01T00:54:39.815Z,8.03
2018-02-01T00:55:39.813Z,8.03
2018-02-01T00:56:40.051Z,8.05
2018-02-01T00:57:39.816Z,8.06
2018-02-01T00:58:40.042Z,8.08
2018-02-01T00:59:39.801Z,8.06
2018-02-01T01:00:39.779Z,8.09
2018-02-01T01:01:40.023Z,8.18
2018-02-01T01:02:39.770Z,8.09
2018-02-01T01:03:40.032Z,8.12
2018-02-01T01:04:39.756Z,8.19
2018-02-01T01:05:40.007Z,8.16
2018-02-01T01:06:39.764Z,8.18
2018-02-01T01:07:39.501Z,8.12
2018-02-01T01:08:39.806Z,8.18
2018-02-01T01:09:39.743Z,8.06
2018-02-01T01:10:40.017Z,8.03
2018-02-01T01:11:39.719Z,8
2018-02-01T01:12:39.708Z,8.1
2018-02-01T01:13:39.454Z,8.05
2018-02-01T01:14:39.959Z,8.1
2018-02-01T01:15:39.449Z,8.08
2018-02-01T01:16:39.690Z,8.03
2018-02-01T01:17:39.689Z,8.09
2018-02-01T01:18:39.933Z,8.06
2018-02-01T01:19:39.683Z,8.06
2018-02-01T01:20:39.679Z,8.06
2018-02-01T01:21:39.662Z,8.01
2018-02-01T01:22:39.657Z,8.06
2018-02-01T01:23:39.909Z,7.91
2018-02-01T01:24:39.651Z,8
2018-02-01T01:25:39.642Z,7.94
2018-02-01T01:26:39.637Z,7.88
2018-02-01T01:27:39.634Z,7.85
2018-02-01T01:28:39.883Z,7.76
2018-02-01T01:29:39.627Z,7.73
2018-02-01T01:30:39.625Z,7.58
2018-02-01T01:31:39.623Z,7.57
2018-02-01T01:32:39.606Z,7.39
2018-02-01T01:33:39.870Z,7.35
2018-02-01T01:34:39.593Z,7.29
2018-02-01T01:35:39.663Z,7.17
2018-02-01T01:36:39.344Z,7.14
2018-02-01T01:37:39.580Z,6.96
2018-02-01T01:38:39.581Z,6.95
2018-02-01T01:39:39.828Z,6.84
2018-02-01T01:40:39.558Z,6.87
2018-02-01T01:41:39.816Z,6.79
2018-02-01T01:42:39.545Z,6.72
2018-02-01T01:43:39.785Z,6.7
2018-02-01T01:44:39.532Z,6.77
2018-02-01T01:45:39.527Z,6.67
2018-02-01T01:46:39.773Z,6.57
2018-02-01T01:47:39.768Z,6.62
2018-02-01T01:48:39.769Z,6.63
2018-02-01T01:49:39.746Z,6.57
2018-02-01T01:50:39.495Z,6.64
2018-02-01T01:51:39.784Z,6.59
2018-02-01T01:52:39.728Z,6.48
2018-02-01T01:53:39.220Z,6.45
2018-02-01T01:54:39.718Z,6.52
2018-02-01T01:55:39.707Z,6.46
2018-02-01T01:56:39.464Z,6.63
2018-02-01T01:57:39.471Z,6.52
2018-02-01T01:58:39.452Z,6.54
2018-02-01T01:59:39.441Z,6.49
2018-02-01T02:00:39.429Z,6.46
2018-02-01T02:01:39.417Z,6.56
2018-02-01T02:02:39.658Z,6.48
2018-02-01T02:03:39.653Z,6.59
2018-02-01T02:04:39.409Z,6.54
2018-02-01T02:05:39.643Z,6.51
2018-02-01T02:06:39.382Z,6.63
2018-02-01T02:07:39.124Z,6.45
2018-02-01T02:08:39.621Z,6.57
2018-02-01T02:09:39.611Z,6.6
2018-02-01T02:10:39.362Z,6.63
2018-02-01T02:11:39.599Z,6.64
2018-02-01T02:12:39.604Z,6.62
2018-02-01T02:13:39.333Z,6.66
2018-02-01T02:14:39.580Z,6.72
2018-02-01T02:15:39.322Z,6.74
2018-02-01T02:16:39.581Z,6.67
2018-02-01T02:17:39.310Z,6.66
2018-02-01T02:18:39.560Z,6.69
2018-02-01T02:19:39.313Z,6.63
2018-02-01T02:20:39.287Z,6.67
2018-02-01T02:21:39.282Z,6.62
2018-02-01T02:22:39.021Z,6.54
2018-02-01T02:23:39.526Z,6.56
2018-02-01T02:24:39.260Z,6.56
2018-02-01T02:25:39.253Z,6.56
2018-02-01T02:26:39.250Z,6.56
2018-02-01T02:27:38.991Z,6.6
2018-02-01T02:28:39.530Z,6.57
2018-02-01T02:29:39.492Z,6.52
2018-02-01T02:30:41.099Z,6.59
2018-02-01T02:31:39.492Z,6.49
2018-02-01T02:32:39.210Z,6.59
2018-02-01T02:33:39.208Z,6.44
2018-02-01T02:34:39.462Z,6.44
2018-02-01T02:35:39.445Z,6.45
2018-02-01T02:36:39.443Z,6.42
2018-02-01T02:37:39.467Z,6.39
2018-02-01T02:38:39.456Z,6.35
2018-02-01T02:39:39.178Z,6.48
2018-02-01T02:40:39.153Z,6.48
2018-02-01T02:41:39.401Z,6.39
2018-02-01T02:42:39.215Z,6.42
2018-02-01T02:43:38.891Z,6.39
2018-02-01T02:44:39.383Z,6.28
2018-02-01T02:45:38.875Z,6.35
2018-02-01T02:46:39.126Z,6.26
2018-02-01T02:47:39.369Z,6.24
2018-02-01T02:48:39.116Z,6.33
2018-02-01T02:49:39.344Z,6.31
2018-02-01T02:50:38.838Z,6.28
2018-02-01T02:51:39.335Z,6.27
2018-02-01T02:52:39.323Z,6.36
2018-02-01T02:53:39.330Z,6.36
2018-02-01T02:54:39.370Z,6.31
2018-02-01T02:55:39.315Z,6.31
2018-02-01T02:56:38.789Z,6.3
2018-02-01T02:57:39.038Z,6.3
2018-02-01T02:58:39.040Z,6.36
2018-02-01T02:59:39.023Z,6.35
2018-02-01T03:00:39.016Z,6.28
2018-02-01T03:01:40.621Z,6.26
2018-02-01T03:02:39.252Z,6.27
2018-02-01T03:03:39.251Z,6.3
2018-02-01T03:04:39.252Z,6.2
2018-02-01T03:05:39.249Z,6.19
2018-02-01T03:06:38.979Z,6.24
2018-02-01T03:07:38.973Z,6.17
2018-02-01T03:08:38.972Z,6.12
2018-02-01T03:09:38.961Z,6.2
2018-02-01T03:10:38.953Z,6.16
2018-02-01T03:11:38.942Z,6.16
2018-02-01T03:12:38.941Z,6.19
2018-02-01T03:13:39.176Z,6.14
2018-02-01T03:14:39.188Z,6.14
2018-02-01T03:15:38.684Z,6.14
2018-02-01T03:16:39.167Z,6.12
2018-02-01T03:17:38.904Z,6.05
2018-02-01T03:18:38.892Z,6.11
2018-02-01T03:19:39.133Z,6.14
2018-02-01T03:20:38.881Z,6.09
2018-02-01T03:21:38.873Z,6.09
2018-02-01T03:22:39.111Z,6.09
2018-02-01T03:23:38.863Z,6.08
2018-02-01T03:24:39.108Z,6.16
2018-02-01T03:25:38.849Z,6.12
2018-02-01T03:26:39.086Z,6.07
2018-02-01T03:27:38.573Z,6.11
2018-02-01T03:28:39.069Z,6.09
2018-02-01T03:29:38.575Z,6.16
2018-02-01T03:30:39.060Z,6.17
2018-02-01T03:31:43.064Z,6.11
2018-02-01T03:32:39.037Z,6.19
2018-02-01T03:33:38.781Z,6.17
2018-02-01T03:34:38.526Z,6.22
2018-02-01T03:35:38.519Z,6.17
2018-02-01T03:36:38.774Z,6.2
2018-02-01T03:37:39.012Z,6.16
2018-02-01T03:38:38.496Z,6.24
2018-02-01T03:39:38.989Z,6.2
2018-02-01T03:40:38.485Z,6.26
2018-02-01T03:41:38.749Z,6.11
2018-02-01T03:42:38.732Z,6.28
2018-02-01T03:43:38.725Z,6.19
2018-02-01T03:44:38.458Z,6.24
2018-02-01T03:45:38.711Z,6.26
2018-02-01T03:46:38.951Z,6.27
2018-02-01T03:47:38.689Z,6.33
2018-02-01T03:48:38.934Z,6.3
2018-02-01T03:49:38.673Z,6.26
2018-02-01T03:50:38.674Z,6.28
2018-02-01T03:51:38.407Z,6.27
2018-02-01T03:52:38.899Z,6.22
2018-02-01T03:53:38.662Z,6.33
2018-02-01T03:54:38.649Z,6.24
2018-02-01T03:55:38.629Z,6.3
2018-02-01T03:56:38.624Z,6.3
2018-02-01T03:57:38.628Z,6.2
2018-02-01T03:58:38.870Z,6.28
2018-02-01T03:59:38.859Z,6.3
2018-02-01T04:00:38.599Z,6.36
2018-02-01T04:01:38.593Z,6.33
2018-02-01T04:02:38.841Z,6.36
2018-02-01T04:03:38.841Z,6.44
2018-02-01T04:04:38.586Z,6.41
2018-02-01T04:05:38.566Z,6.41
2018-02-01T04:06:38.561Z,6.35
2018-02-01T04:07:38.805Z,6.35
2018-02-01T04:08:38.557Z,6.44
2018-02-01T04:09:38.537Z,6.39
2018-02-01T04:10:38.553Z,6.45
2018-02-01T04:11:38.792Z,6.31
2018-02-01T04:12:38.521Z,6.36
2018-02-01T04:13:38.516Z,6.44
2018-02-01T04:14:38.756Z,6.35
2018-02-01T04:15:38.773Z,6.48
2018-02-01T04:16:38.241Z,6.35
2018-02-01T04:17:38.747Z,6.44
2018-02-01T04:18:38.480Z,6.3
2018-02-01T04:19:38.480Z,6.44
2018-02-01T04:20:38.471Z,6.52
2018-02-01T04:21:38.715Z,6.52
2018-02-01T04:22:38.211Z,6.39
2018-02-01T04:23:38.453Z,6.49
2018-02-01T04:24:38.451Z,6.45
2018-02-01T04:25:38.192Z,6.49
2018-02-01T04:26:38.676Z,6.48
2018-02-01T04:27:38.675Z,6.48
2018-02-01T04:28:38.674Z,6.51
2018-02-01T04:29:38.414Z,6.41
2018-02-01T04:30:38.486Z,6.48
2018-02-01T04:31:38.411Z,6.51
2018-02-01T04:32:38.655Z,6.46
2018-02-01T04:33:38.387Z,6.44
2018-02-01T04:34:38.374Z,6.46
2018-02-01T04:35:38.625Z,6.35
2018-02-01T04:36:38.365Z,6.38
2018-02-01T04:37:38.110Z,6.42
2018-02-01T04:38:38.350Z,6.42
2018-02-01T04:39:38.591Z,6.3
2018-02-01T04:40:38.347Z,6.39
2018-02-01T04:41:38.333Z,6.36
2018-02-01T04:42:38.583Z,6.38
2018-02-01T04:43:38.574Z,6.27
2018-02-01T04:44:38.056Z,6.33
2018-02-01T04:45:38.059Z,6.39
2018-02-01T04:46:38.555Z,6.41
2018-02-01T04:47:38.039Z,6.24
2018-02-01T04:48:38.285Z,6.27
2018-02-01T04:49:38.276Z,6.26
2018-02-01T04:50:38.270Z,6.28
2018-02-01T04:51:38.516Z,6.19
2018-02-01T04:52:38.258Z,6.24
2018-02-01T04:53:38.502Z,6.28
2018-02-01T04:54:38.240Z,6.33
2018-02-01T04:55:38.485Z,6.27
2018-02-01T04:56:38.484Z,6.26
2018-02-01T04:57:38.474Z,6.22
2018-02-01T04:58:38.473Z,6.24
2018-02-01T04:59:38.242Z,6.27
2018-02-01T05:00:38.456Z,6.3
2018-02-01T05:01:38.193Z,6.28
2018-02-01T05:02:38.438Z,6.22
2018-02-01T05:03:37.933Z,6.24
2018-02-01T05:04:38.442Z,6.26
2018-02-01T05:05:38.195Z,6.3
2018-02-01T05:06:38.176Z,6.26
2018-02-01T05:07:38.208Z,6.26
2018-02-01T05:08:38.408Z,6.26
2018-02-01T05:09:38.141Z,6.3
2018-02-01T05:10:37.891Z,6.36
2018-02-01T05:11:38.128Z,6.39
2018-02-01T05:12:38.373Z,6.39
2018-02-01T05:13:38.382Z,6.42
2018-02-01T05:14:38.370Z,6.39
2018-02-01T05:15:38.116Z,6.35
2018-02-01T05:16:38.352Z,6.27
2018-02-01T05:17:38.095Z,6.36
2018-02-01T05:18:38.133Z,6.27
2018-02-01T05:19:38.073Z,6.24
2018-02-01T05:20:38.064Z,6.24
2018-02-01T05:21:38.329Z,6.22
2018-02-01T05:22:38.047Z,6.38
2018-02-01T05:23:38.298Z,6.36
2018-02-01T05:24:37.803Z,6.42
2018-02-01T05:25:38.282Z,6.42
2018-02-01T05:26:38.281Z,6.38
2018-02-01T05:27:38.273Z,6.41
2018-02-01T05:28:38.285Z,6.42
2018-02-01T05:29:38.003Z,6.39
2018-02-01T05:30:38.250Z,6.28
2018-02-01T05:31:38.240Z,6.35
2018-02-01T05:32:37.987Z,6.3
2018-02-01T05:33:37.978Z,6.39
2018-02-01T05:34:38.223Z,6.38
2018-02-01T05:35:37.714Z,6.33
2018-02-01T05:36:38.205Z,6.45
2018-02-01T05:37:37.950Z,6.44
2018-02-01T05:38:38.196Z,6.44
2018-02-01T05:39:37.952Z,6.31
2018-02-01T05:40:38.187Z,6.19
2018-02-01T05:41:37.683Z,5.93
2018-02-01T05:42:37.663Z,5.69
2018-02-01T05:43:37.910Z,5.54
2018-02-01T05:44:37.653Z,5.39
2018-02-01T05:45:38.146Z,5.28
2018-02-01T05:46:38.147Z,5.25
2018-02-01T05:47:38.142Z,5.1
2018-02-01T05:48:37.621Z,5.15
2018-02-01T05:49:38.120Z,5.1
2018-02-01T05:50:37.867Z,4.99
2018-02-01T05:51:38.109Z,5
2018-02-01T05:52:38.098Z,5.02
2018-02-01T05:53:38.090Z,4.97
2018-02-01T05:54:37.829Z,4.86
2018-02-01T05:55:37.662Z,4.94
2018-02-01T05:56:38.070Z,4.96
2018-02-01T05:57:37.811Z,4.87
2018-02-01T05:58:37.550Z,4.9
2018-02-01T05:59:37.788Z,4.87
2018-02-01T06:00:37.782Z,4.93
2018-02-01T06:01:37.787Z,4.86
2018-02-01T06:02:41.221Z,4.84
2018-02-01T06:03:37.759Z,4.99
2018-02-01T06:04:38.006Z,4.86
2018-02-01T06:05:37.745Z,4.86
2018-02-01T06:06:37.985Z,4.87
2018-02-01T06:07:37.989Z,4.86
2018-02-01T06:08:37.714Z,4.86
2018-02-01T06:09:38.080Z,4.92
2018-02-01T06:10:37.975Z,4.89
2018-02-01T06:11:37.944Z,4.82
2018-02-01T06:12:37.939Z,4.92
2018-02-01T06:13:37.679Z,4.96
2018-02-01T06:22:39.552Z,4.89
2018-02-01T06:23:39.488Z,4.89
2018-02-01T06:24:39.233Z,4.94
2018-02-01T06:25:39.466Z,4.93
2018-02-01T06:26:39.456Z,4.94
2018-02-01T06:27:39.437Z,4.86
2018-02-01T06:28:39.189Z,4.86
2018-02-01T06:29:39.423Z,4.75
2018-02-01T06:30:39.157Z,4.77
2018-02-01T06:31:39.445Z,4.74
2018-02-01T06:32:39.392Z,4.73
2018-02-01T06:33:39.151Z,4.68
2018-02-01T06:34:39.138Z,4.75
2018-02-01T06:35:39.127Z,4.74
2018-02-01T06:36:39.127Z,4.77
2018-02-01T06:37:39.344Z,4.87
2018-02-01T06:38:39.088Z,4.93
2018-02-01T06:39:39.091Z,4.89
2018-02-01T06:40:39.327Z,4.87
2018-02-01T06:41:39.067Z,4.94
2018-02-01T06:42:39.306Z,5.07
2018-02-01T06:43:38.882Z,5.11
2018-02-01T06:44:39.289Z,5.17
2018-02-01T06:45:39.048Z,5.05
2018-02-01T06:46:39.036Z,5.05
2018-02-01T06:47:39.271Z,5.02
2018-02-01T06:48:39.008Z,5.05
2018-02-01T06:49:38.992Z,5.02
2018-02-01T06:50:38.997Z,5.07
2018-02-01T06:51:38.726Z,5.08
2018-02-01T06:52:38.726Z,5.17
2018-02-01T06:53:38.973Z,5.23
2018-02-01T06:54:39.204Z,5.17
2018-02-01T06:55:39.191Z,5.29
2018-02-01T06:56:39.212Z,5.25
2018-02-01T06:57:38.940Z,5.25
2018-02-01T06:58:38.935Z,5.29
2018-02-01T06:59:38.938Z,5.3
2018-02-01T07:00:38.906Z,5.23
2018-02-01T07:01:39.154Z,5.25
2018-02-01T07:02:38.639Z,5.25
2018-02-01T07:03:38.885Z,5.3
2018-02-01T07:04:38.749Z,5.25
2018-02-01T07:05:38.923Z,5.23
2018-02-01T07:06:38.880Z,5.26
2018-02-01T07:07:38.859Z,5.28
2018-02-01T07:08:38.848Z,5.3
2018-02-01T07:09:38.834Z,5.25
2018-02-01T07:10:39.103Z,5.33
2018-02-01T07:11:39.096Z,5.33
2018-02-01T07:12:38.810Z,5.36
2018-02-01T07:13:39.126Z,5.36
2018-02-01T07:14:39.072Z,5.38
2018-02-01T07:15:38.790Z,5.46
2018-02-01T07:16:38.785Z,5.41
2018-02-01T07:17:39.031Z,5.46
2018-02-01T07:18:38.510Z,5.48
2018-02-01T07:19:39.008Z,5.46
2018-02-01T07:20:38.754Z,5.47
2018-02-01T07:21:38.758Z,5.48
2018-02-01T07:22:38.482Z,5.56
2018-02-01T07:23:38.743Z,5.53
2018-02-01T07:24:38.725Z,5.57
2018-02-01T07:25:38.706Z,5.54
2018-02-01T07:26:38.706Z,5.57
2018-02-01T07:27:38.700Z,5.61
2018-02-01T07:28:38.974Z,5.53
2018-02-01T07:29:38.685Z,5.53
2018-02-01T07:30:38.931Z,5.56
2018-02-01T07:31:38.686Z,5.54
2018-02-01T07:32:38.915Z,5.46
2018-02-01T07:33:38.652Z,5.43
2018-02-01T07:34:38.649Z,5.43
2018-02-01T07:35:38.636Z,5.39
2018-02-01T07:36:38.380Z,5.38
2018-02-01T07:37:38.616Z,5.39
2018-02-01T07:38:38.864Z,5.43
2018-02-01T07:39:38.856Z,5.41
2018-02-01T07:40:38.605Z,5.46
2018-02-01T07:41:38.599Z,5.41
2018-02-01T07:42:38.831Z,5.43
2018-02-01T07:43:38.574Z,5.41
2018-02-01T07:44:38.815Z,5.36
2018-02-01T07:45:38.309Z,5.5
2018-02-01T07:46:38.553Z,5.44
2018-02-01T07:47:38.791Z,5.33
2018-02-01T07:48:38.535Z,5.48
2018-02-01T07:49:38.275Z,5.41
2018-02-01T07:50:38.265Z,5.46
2018-02-01T07:51:38.510Z,5.38
2018-02-01T07:52:38.503Z,5.41
2018-02-01T07:53:38.755Z,5.47
2018-02-01T07:54:38.244Z,5.48
2018-02-01T07:55:38.228Z,5.5
2018-02-01T07:56:38.725Z,5.62
2018-02-01T07:57:38.485Z,5.53
2018-02-01T07:58:38.712Z,5.59
2018-02-01T07:59:38.455Z,5.62
2018-02-01T08:00:38.201Z,5.62
2018-02-01T08:01:38.448Z,5.54
2018-02-01T08:02:38.175Z,5.61
2018-02-01T08:03:38.423Z,5.56
2018-02-01T08:04:38.476Z,5.59
2018-02-01T08:05:38.156Z,5.62
2018-02-01T08:06:38.654Z,5.69
2018-02-01T08:07:38.450Z,5.69
2018-02-01T08:08:38.645Z,5.65
2018-02-01T08:09:38.380Z,5.64
2018-02-01T08:10:38.381Z,5.56
2018-02-01T08:11:38.361Z,5.59
2018-02-01T08:12:38.351Z,5.65
2018-02-01T08:13:38.344Z,5.59
2018-02-01T08:14:38.342Z,5.56
2018-02-01T08:15:38.332Z,5.59
2018-02-01T08:16:38.421Z,5.65
2018-02-01T08:17:38.070Z,5.56
2018-02-01T08:18:38.577Z,5.61
2018-02-01T08:19:38.556Z,5.47
2018-02-01T08:20:38.356Z,5.54
2018-02-01T08:21:38.542Z,5.53
2018-02-01T08:22:38.279Z,5.56
2018-02-01T08:23:38.279Z,5.61
2018-02-01T08:24:38.534Z,5.53
2018-02-01T08:25:38.259Z,5.53
2018-02-01T08:26:38.516Z,5.62
2018-02-01T08:27:38.242Z,5.62
2018-02-01T08:28:38.489Z,5.69
2018-02-01T08:29:37.984Z,5.68
2018-02-01T08:30:38.227Z,5.79
2018-02-01T08:31:37.973Z,5.83
2018-02-01T08:32:38.223Z,5.83
2018-02-01T08:33:37.951Z,5.91
2018-02-01T08:34:38.191Z,5.84
2018-02-01T08:35:38.440Z,5.84
2018-02-01T08:36:38.175Z,5.93
2018-02-01T08:37:38.174Z,5.9
2018-02-01T08:38:37.913Z,5.97
2018-02-01T08:39:38.155Z,5.97
2018-02-01T08:40:38.410Z,5.94
2018-02-01T08:41:38.148Z,6.01
2018-02-01T08:42:37.884Z,5.98
2018-02-01T08:43:38.129Z,6.11
2018-02-01T08:44:37.891Z,6.14
2018-02-01T08:45:38.125Z,6.14
2018-02-01T08:46:38.114Z,6.24
2018-02-01T08:47:38.112Z,6.26
2018-02-01T08:48:38.413Z,6.3
2018-02-01T08:49:38.095Z,6.33
2018-02-01T08:50:38.334Z,6.31
2018-02-01T08:51:38.324Z,6.28
2018-02-01T08:52:38.068Z,6.26
2018-02-01T08:53:38.489Z,6.31
2018-02-01T08:54:37.809Z,6.3
2018-02-01T08:55:38.043Z,6.45
2018-02-01T08:56:38.038Z,6.39
2018-02-01T08:57:37.783Z,6.51
2018-02-01T08:58:38.034Z,6.48
2018-02-01T08:59:37.766Z,6.59
2018-02-01T09:00:38.058Z,6.51
2018-02-01T09:01:38.253Z,6.49
2018-02-01T09:02:38.251Z,6.41
2018-02-01T09:03:37.752Z,6.49
2018-02-01T09:04:38.235Z,6.44
2018-02-01T09:05:37.983Z,6.52
2018-02-01T09:06:38.223Z,6.52
2018-02-01T09:07:38.223Z,6.69
2018-02-01T09:08:38.208Z,6.67
2018-02-01T09:09:38.212Z,6.66
2018-02-01T09:10:37.950Z,6.7
2018-02-01T09:11:37.990Z,6.67
2018-02-01T09:12:37.930Z,6.63
2018-02-01T09:13:37.678Z,6.64
2018-02-01T09:14:37.677Z,6.67
2018-02-01T09:15:38.163Z,6.69
2018-02-01T09:16:38.161Z,6.64
2018-02-01T09:17:37.653Z,6.7
2018-02-01T09:18:37.898Z,6.7
2018-02-01T09:19:37.892Z,6.75
2018-02-01T09:20:38.134Z,6.64
2018-02-01T09:21:37.878Z,6.67
2018-02-01T09:22:37.868Z,6.67
2018-02-01T09:23:38.129Z,6.66
2018-02-01T09:24:37.860Z,6.59
2018-02-01T09:25:37.864Z,6.46
2018-02-01T09:26:38.106Z,6.49
2018-02-01T09:27:38.098Z,6.56
2018-02-01T09:28:38.083Z,6.56
2018-02-01T09:29:37.842Z,6.57
2018-02-01T09:30:38.081Z,6.6
2018-02-01T09:31:38.076Z,6.48
2018-02-01T09:32:37.805Z,6.39
2018-02-01T09:33:38.058Z,6.36
2018-02-01T09:34:37.806Z,6.45
2018-02-01T09:35:37.545Z,6.51
2018-02-01T09:36:37.781Z,6.54
2018-02-01T09:37:38.028Z,6.54
2018-02-01T09:38:37.519Z,6.72
2018-02-01T09:39:37.776Z,6.79
2018-02-01T09:40:38.003Z,6.81
2018-02-01T09:41:37.501Z,6.93
2018-02-01T09:42:37.496Z,6.88
2018-02-01T09:43:37.998Z,6.87
2018-02-01T09:44:37.983Z,6.87
2018-02-01T09:45:37.723Z,6.96
2018-02-01T09:46:37.979Z,7.07
2018-02-01T09:47:37.744Z,7.13
2018-02-01T09:48:37.969Z,7.17
2018-02-01T09:49:37.702Z,7.17
2018-02-01T09:50:38.041Z,7.17
2018-02-01T09:51:37.694Z,7.23
2018-02-01T09:52:37.940Z,7.29
2018-02-01T09:53:37.681Z,7.25
2018-02-01T09:54:37.921Z,7.35
2018-02-01T09:55:37.668Z,7.31
2018-02-01T09:56:37.667Z,7.35
2018-02-01T09:57:37.909Z,7.43
2018-02-01T09:58:37.913Z,7.39
2018-02-01T09:59:37.641Z,7.4
2018-02-01T10:00:37.894Z,7.43
2018-02-01T10:01:37.881Z,7.5
2018-02-01T10:02:37.629Z,7.43
2018-02-01T10:03:37.377Z,7.4
2018-02-01T10:04:37.883Z,7.4
2018-02-01T10:05:37.372Z,7.35
2018-02-01T10:06:37.607Z,7.36
2018-02-01T10:07:37.865Z,7.4
2018-02-01T10:08:37.850Z,7.54
2018-02-01T10:09:37.584Z,7.66
2018-02-01T10:10:37.849Z,7.75
2018-02-01T10:11:37.829Z,7.72
2018-02-01T10:12:37.919Z,7.73
2018-02-01T10:13:37.573Z,7.61
2018-02-01T10:14:37.387Z,7.58
2018-02-01T10:15:37.320Z,7.5
2018-02-01T10:16:37.806Z,7.45
2018-02-01T10:17:37.859Z,7.32
2018-02-01T10:18:37.540Z,7.38
2018-02-01T10:19:37.785Z,7.32
2018-02-01T10:20:37.527Z,7.4
2018-02-01T10:21:37.275Z,7.36
2018-02-01T10:22:37.526Z,7.36
2018-02-01T10:23:37.762Z,7.28
2018-02-01T10:53:29.993Z,7.38
2018-02-01T10:54:29.915Z,7.32
2018-02-01T10:55:29.655Z,7.35
2018-02-01T10:56:29.636Z,7.28
2018-02-01T10:57:29.879Z,7.31
2018-02-01T10:58:29.870Z,7.24
2018-02-01T10:59:30.116Z,7.28
2018-02-01T11:00:30.107Z,7.25
2018-02-01T11:01:30.088Z,7.35
2018-02-01T11:02:29.580Z,7.32
2018-02-01T11:03:29.577Z,7.29
2018-02-01T11:04:29.569Z,7.25
2018-02-01T11:05:29.590Z,7.29
2018-02-01T11:06:30.054Z,7.33
2018-02-01T11:07:30.055Z,7.33
2018-02-01T11:08:29.800Z,7.36
2018-02-01T11:09:30.029Z,7.31
2018-02-01T11:10:29.774Z,7.14
2018-02-01T11:11:30.032Z,7.07
2018-02-01T11:12:30.018Z,7.1
2018-02-01T11:13:30.006Z,7.13
2018-02-01T11:14:29.999Z,7.1
2018-02-01T11:15:30.008Z,7.1
2018-02-01T11:16:29.484Z,7.07
2018-02-01T11:17:29.984Z,7.05
2018-02-01T11:18:29.727Z,7.1
2018-02-01T11:19:29.723Z,7.13
2018-02-01T11:20:29.736Z,7.11
2018-02-01T11:21:29.954Z,7.06
2018-02-01T11:22:29.694Z,7.15
2018-02-01T11:23:29.690Z,7.14
2018-02-01T11:24:29.946Z,7.21
2018-02-01T11:25:29.485Z,7.17
2018-02-01T11:26:29.671Z,7.18
2018-02-01T11:27:29.681Z,7.21
2018-02-01T11:28:29.667Z,7.23
2018-02-01T11:29:29.661Z,7.25
2018-02-01T11:30:29.918Z,7.15
2018-02-01T11:31:29.669Z,7.14
2018-02-01T11:32:29.904Z,7.17
2018-02-01T11:33:29.638Z,7.23
2018-02-01T11:34:29.883Z,7.29
2018-02-01T11:35:29.620Z,7.29
2018-02-01T11:36:29.617Z,7.33
2018-02-01T11:37:29.862Z,7.38
2018-02-01T11:38:29.611Z,7.31
2018-02-01T11:39:29.598Z,7.33
2018-02-01T11:40:29.845Z,7.25
2018-02-01T11:41:29.582Z,7.23
2018-02-01T11:42:29.830Z,7.24
2018-02-01T11:43:29.824Z,7.29
2018-02-01T11:44:29.572Z,7.33
2018-02-01T11:45:29.327Z,7.38
2018-02-01T11:46:29.556Z,7.38
2018-02-01T11:47:29.552Z,7.4
2018-02-01T11:48:29.553Z,7.32
2018-02-01T11:49:29.291Z,7.28
2018-02-01T11:50:29.857Z,7.2
2018-02-01T11:51:29.794Z,7.21
2018-02-01T11:52:29.526Z,7.21
2018-02-01T11:53:29.771Z,7.25
2018-02-01T11:54:29.562Z,7.28
2018-02-01T11:55:29.546Z,7.36
2018-02-01T11:56:29.763Z,7.39
2018-02-01T11:57:29.503Z,7.33
2018-02-01T11:58:29.741Z,7.32
2018-02-01T11:59:29.478Z,7.35
2018-02-01T12:00:29.229Z,7.32
2018-02-01T12:01:29.470Z,7.31
2018-02-01T12:02:29.465Z,7.23
2018-02-01T12:03:29.715Z,7.13
2018-02-01T12:04:29.457Z,7.2
2018-02-01T12:05:29.776Z,7.24
2018-02-01T12:06:29.197Z,7.29
2018-02-01T12:07:29.697Z,7.32
2018-02-01T12:08:29.437Z,7.32
2018-02-01T12:09:29.174Z,7.25
2018-02-01T12:10:29.710Z,7.29
2018-02-01T12:11:29.422Z,7.11
2018-02-01T12:12:29.410Z,7.11
2018-02-01T12:13:29.410Z,6.89
2018-02-01T12:14:29.398Z,6.92
2018-02-01T12:15:29.683Z,6.81
2018-02-01T12:16:29.698Z,6.84
2018-02-01T12:17:29.401Z,6.78
2018-02-01T12:18:29.629Z,6.84
2018-02-01T12:19:29.116Z,6.88
2018-02-01T12:20:29.617Z,6.87
2018-02-01T12:21:29.619Z,6.85
2018-02-01T12:22:29.354Z,6.87
2018-02-01T12:23:29.142Z,6.84
2018-02-01T12:24:29.599Z,6.78
2018-02-01T12:25:29.330Z,6.79
2018-02-01T12:26:29.326Z,6.77
2018-02-01T12:27:29.323Z,6.79
2018-02-01T12:28:29.327Z,6.87
2018-02-01T12:29:29.563Z,6.7
2018-02-01T12:30:29.558Z,6.79
2018-02-01T12:31:29.045Z,6.85
2018-02-01T12:32:29.296Z,6.87
2018-02-01T12:33:29.342Z,6.95
2018-02-01T12:34:29.346Z,6.88
2018-02-01T12:35:29.032Z,6.92
2018-02-01T12:36:29.277Z,6.88
2018-02-01T12:37:29.563Z,6.88
2018-02-01T12:38:29.514Z,7
2018-02-01T12:39:29.504Z,7.07
2018-02-01T12:40:29.245Z,7.05
2018-02-01T12:41:29.237Z,7.1
2018-02-01T12:42:28.988Z,7.15
2018-02-01T12:43:29.240Z,7.15
2018-02-01T12:44:29.294Z,7.1
2018-02-01T12:45:29.102Z,7.17
2018-02-01T12:46:29.210Z,7.14
2018-02-01T12:47:29.507Z,7.25
2018-02-01T12:48:29.230Z,7.31
2018-02-01T12:49:29.441Z,7.4
2018-02-01T12:50:29.219Z,7.43
2018-02-01T12:51:29.424Z,7.43
2018-02-01T12:52:29.175Z,7.47
2018-02-01T12:53:29.211Z,7.4
2018-02-01T12:54:29.409Z,7.42
2018-02-01T12:55:28.905Z,7.32
2018-02-01T12:56:29.155Z,7.29
2018-02-01T12:57:29.141Z,7.17
2018-02-01T12:58:29.155Z,7.11
2018-02-01T12:59:29.140Z,7.06
2018-02-01T13:00:29.438Z,7
2018-02-01T13:01:29.117Z,7
2018-02-01T13:02:29.383Z,6.99
2018-02-01T13:03:29.375Z,6.92
2018-02-01T13:04:29.113Z,6.87
2018-02-01T13:05:29.126Z,6.77
2018-02-01T13:06:29.104Z,6.62
2018-02-01T13:07:29.110Z,6.59
2018-02-01T13:08:29.351Z,6.56
2018-02-01T13:09:29.080Z,6.44
2018-02-01T13:10:29.087Z,6.46
2018-02-01T13:11:29.065Z,6.46
2018-02-01T13:12:29.072Z,6.48
2018-02-01T13:13:29.049Z,6.54
2018-02-01T13:14:28.806Z,6.62
2018-02-01T13:15:29.083Z,6.66
2018-02-01T13:16:29.104Z,6.66
2018-02-01T13:17:29.292Z,6.69
2018-02-01T13:18:29.045Z,6.81
2018-02-01T13:19:29.019Z,6.78
2018-02-01T13:20:29.027Z,6.77
2018-02-01T13:21:29.033Z,6.77
2018-02-01T13:22:29.011Z,6.87
2018-02-01T13:23:28.992Z,6.95
2018-02-01T13:24:29.251Z,6.87
2018-02-01T13:25:29.281Z,6.93
2018-02-01T13:26:28.967Z,6.87
2018-02-01T13:27:29.003Z,6.92
2018-02-01T13:28:29.217Z,6.92
2018-02-01T13:29:29.204Z,6.92
2018-02-01T13:30:28.699Z,6.93
2018-02-01T13:31:29.201Z,6.87
2018-02-01T13:32:28.931Z,6.89
2018-02-01T13:33:29.183Z,6.88
2018-02-01T13:34:28.662Z,6.95
2018-02-01T13:35:28.919Z,6.93
2018-02-01T13:36:28.653Z,6.93
2018-02-01T13:37:29.165Z,6.92
2018-02-01T13:38:28.641Z,6.93
2018-02-01T13:39:28.887Z,6.85
2018-02-01T13:40:28.979Z,6.84
2018-02-01T13:41:28.619Z,6.89
2018-02-01T13:42:28.869Z,6.92
2018-02-01T13:43:29.109Z,6.92
2018-02-01T13:44:28.601Z,6.89
2018-02-01T13:45:29.107Z,6.95
2018-02-01T13:46:29.102Z,7.02
2018-02-01T13:47:29.186Z,7.11
2018-02-01T13:48:28.591Z,7.11
2018-02-01T13:49:28.834Z,7.06
2018-02-01T13:50:28.866Z,7.1
2018-02-01T13:51:28.818Z,7.05
2018-02-01T13:52:28.817Z,7.13
2018-02-01T13:53:29.073Z,7.1
2018-02-01T13:54:28.808Z,7.2
2018-02-01T13:55:28.541Z,7.17
2018-02-01T13:56:28.786Z,7.13
2018-02-01T13:57:29.034Z,7.15
2018-02-01T13:58:29.032Z,7.11